Andes — 5BFM3 — position and weather

sailwx.info

Track history (hours):
 
Tides and Currents Weather Stations Pressure Air Temp Water Temp Dewpoint Dewpoint Depression Visibility Wind Speed Wind Dir Waves Ship Positions

Andes

Last reported at 2018-Feb-18 10:27 UTC. Time now 2018-Feb-19 23:48 UTC.
Position N 49°44' W 003°50'.

Length 182 m; draft 11.2 m.

Type: Tanker. MMSI: 209394000.

Date/timePositionNaut miles runAvg speedWind from/ knotsBaromVisibWave heightAir tempDewpointWater temp
2018-Feb-18 10:27N 49°44' W 003°50'812.9
2018-Feb-18 09:49N 49°48' W 003°38'412.4
2018-Feb-18 09:30N 49°49' W 003°32'711.9
2018-Feb-18 08:56N 49°52' W 003°23'511.5
2018-Feb-18 08:30N 49°53' W 003°15'611.3
2018-Feb-18 08:00N 49°56' W 003°07'611.3
2018-Feb-18 07:30N 49°58' W 002°59'611.6
2018-Feb-18 06:59N 50°00' W 002°51'612.1
2018-Feb-18 06:31N 50°03' W 002°43'712.9
2018-Feb-18 05:59N 50°04' W 002°32'1714.4
2018-Feb-18 04:48N 50°08' W 002°06'515.9
2018-Feb-18 04:31N 50°09' W 001°59'816.5
2018-Feb-18 04:00N 50°11' W 001°47'816.8
2018-Feb-18 03:30N 50°13' W 001°34'816.7
2018-Feb-18 03:01N 50°16' W 001°22'2315.8
2018-Feb-18 01:31N 50°22' W 000°46'1613.7
2018-Feb-18 00:22N 50°26' W 000°22'512.7
2018-Feb-18 00:00N 50°28' W 000°16'612.4
2018-Feb-17 23:30N 50°29' W 000°06'611.7
2018-Feb-17 23:00N 50°31' E 000°03'611.3
2018-Feb-17 22:29N 50°33' E 000°12'511.0
2018-Feb-17 22:00N 50°34' E 000°20'611.2
2018-Feb-17 21:30N 50°35' E 000°28'612.0
2018-Feb-17 21:00N 50°37' E 000°37'612.9
2018-Feb-17 20:30N 50°40' E 000°46'713.9
2018-Feb-17 20:00N 50°45' E 000°54'714.8
2018-Feb-17 19:30N 50°50' E 001°03'815.1
2018-Feb-17 19:00N 50°55' E 001°11'815.3
2018-Feb-17 18:30N 51°00' E 001°20'714.9
2018-Feb-17 18:00N 51°05' E 001°29'713.8
2018-Feb-17 17:30N 51°09' E 001°38'612.9
2018-Feb-17 17:00N 51°14' E 001°45'612.5
2018-Feb-17 16:30N 51°19' E 001°49'611.8
2018-Feb-17 16:00N 51°25' E 001°53'611.3
2018-Feb-17 15:30N 51°29' E 001°58'611.6
2018-Feb-17 15:00N 51°34' E 002°05'611.6
2018-Feb-17 14:30N 51°38' E 002°11'611.5
2018-Feb-17 14:00N 51°42' E 002°17'611.9
2018-Feb-17 13:29N 51°47' E 002°24'3913.8
2018-Feb-17 10:39N 52°16' E 003°07'314.9
2018-Feb-17 10:26N 52°18' E 003°10'714.7
2018-Feb-17 09:59N 52°23' E 003°18'714.5
2018-Feb-17 09:30N 52°25' E 003°28'814.3
2018-Feb-17 08:59N 52°28' E 003°40'714.0
2018-Feb-17 08:30N 52°30' E 003°50'713.4
2018-Feb-17 08:00N 52°31' E 004°01'713.2
2018-Feb-17 07:31N 52°31' E 004°12'612.5
2018-Feb-17 07:00N 52°29' E 004°22'611.0
2018-Feb-17 06:31N 52°28' E 004°31'4 7.2
2018-Feb-17 06:00N 52°28' E 004°37'0 0.0
2018-Feb-17 05:31N 52°28' E 004°37'2 4.7
2018-Feb-17 05:00N 52°27' E 004°40'4 7.5
2018-Feb-17 04:30N 52°26' E 004°46'3 5.9
2018-Feb-17 04:00N 52°25' E 004°51'0 0.7
2018-Feb-17 03:28N 52°25' E 004°50'0 0.0
2018-Feb-17 02:58N 52°25' E 004°50'0 0.0
2018-Feb-17 02:25N 52°25' E 004°50'0 0.0
2018-Feb-17 01:55N 52°25' E 004°50'0 0.0
2018-Feb-17 01:28N 52°25' E 004°50'0 0.0
2018-Feb-17 00:55N 52°25' E 004°50'0 0.0
2018-Feb-17 00:28N 52°25' E 004°50'0 0.0
2018-Feb-16 23:58N 52°25' E 004°50'0 0.0
2018-Feb-16 23:28N 52°25' E 004°50'0 0.0
2018-Feb-16 22:55N 52°25' E 004°50'0 0.0
2018-Feb-16 22:28N 52°25' E 004°50'0 0.0
2018-Feb-16 21:58N 52°25' E 004°50'0 0.0
2018-Feb-16 21:28N 52°25' E 004°50'0 0.0
2018-Feb-16 20:58N 52°25' E 004°50'0 0.0
2018-Feb-16 20:25N 52°25' E 004°50'0 0.0
2018-Feb-16 19:55N 52°25' E 004°50'0 0.0
2018-Feb-16 19:22N 52°25' E 004°50'0 0.0
2018-Feb-16 18:55N 52°25' E 004°50'0 0.0
2018-Feb-16 18:25N 52°25' E 004°50'0 0.0
2018-Feb-16 17:58N 52°25' E 004°50'0 0.0
2018-Feb-16 17:22N 52°25' E 004°50'0 0.0
2018-Feb-16 16:49N 52°25' E 004°50'0 0.0
2018-Feb-16 16:25N 52°25' E 004°50'0 0.0
2018-Feb-16 15:55N 52°25' E 004°50'0 0.0
2018-Feb-16 15:28N 52°25' E 004°50'0 0.0
2018-Feb-16 14:55N 52°25' E 004°50'0 0.0
2018-Feb-16 14:25N 52°25' E 004°50'0 0.0
2018-Feb-16 13:55N 52°25' E 004°50'0 0.0
2018-Feb-16 13:25N 52°25' E 004°50'0 0.0
2018-Feb-16 12:55N 52°25' E 004°50'0 0.0
2018-Feb-16 12:28N 52°25' E 004°50'0 0.0
2018-Feb-16 11:58N 52°25' E 004°50'0 0.0
2018-Feb-16 11:25N 52°25' E 004°50'0 0.0
2018-Feb-16 10:55N 52°25' E 004°50'0 0.0
2018-Feb-16 10:28N 52°25' E 004°50'0 0.0
2018-Feb-16 09:55N 52°25' E 004°50'0 0.0
2018-Feb-16 09:28N 52°25' E 004°50'0 0.0
2018-Feb-16 08:58N 52°25' E 004°50'0 0.0
2018-Feb-16 08:16N 52°25' E 004°50'0 0.0
2018-Feb-16 07:55N 52°25' E 004°50'0 0.0
2018-Feb-16 07:28N 52°25' E 004°50'0 0.0
2018-Feb-16 06:55N 52°25' E 004°50'0 0.0
2018-Feb-16 06:22N 52°25' E 004°50'0 0.0
2018-Feb-16 05:58N 52°25' E 004°50'0 0.0
2018-Feb-16 05:28N 52°25' E 004°50'0 0.0
2018-Feb-16 04:55N 52°25' E 004°50'0 0.0
2018-Feb-16 04:25N 52°25' E 004°50'0 0.0
2018-Feb-16 03:58N 52°25' E 004°50'0 0.0
2018-Feb-16 03:28N 52°25' E 004°50'0 0.0
2018-Feb-16 02:58N 52°25' E 004°50'0 0.0
2018-Feb-16 02:28N 52°25' E 004°50'0 0.0
2018-Feb-16 01:58N 52°25' E 004°50'0 0.0
2018-Feb-16 01:28N 52°25' E 004°50'0 0.0
2018-Feb-16 00:58N 52°25' E 004°50'0 0.0
2018-Feb-16 00:22N 52°25' E 004°50'0 0.0
2018-Feb-15 23:55N 52°25' E 004°50'0 0.0
2018-Feb-15 23:28N 52°25' E 004°50'0 0.0
2018-Feb-15 22:52N 52°25' E 004°50'0 0.0
2018-Feb-15 22:28N 52°25' E 004°50'0 0.0
2018-Feb-15 21:58N 52°25' E 004°50'0 0.0
2018-Feb-15 21:25N 52°25' E 004°50'0 0.0
2018-Feb-15 20:58N 52°25' E 004°50'0 0.0
2018-Feb-15 20:13N 52°25' E 004°50'0 0.0
2018-Feb-15 19:58N 52°25' E 004°50'0 0.0
2018-Feb-15 19:28N 52°25' E 004°50'0 0.0
2018-Feb-15 18:58N 52°25' E 004°50'0 0.0
2018-Feb-15 18:22N 52°25' E 004°50'0 0.0
2018-Feb-15 17:49N 52°25' E 004°50'0 0.0
2018-Feb-15 17:25N 52°25' E 004°50'0 0.0
2018-Feb-15 16:58N 52°25' E 004°50'0 0.0
2018-Feb-15 16:25N 52°25' E 004°50'0 0.0
2018-Feb-15 15:55N 52°25' E 004°50'0 0.0
2018-Feb-15 15:25N 52°25' E 004°50'0 0.0
2018-Feb-15 14:58N 52°25' E 004°50'0 0.0
2018-Feb-15 14:25N 52°25' E 004°50'0 0.0
2018-Feb-15 13:55N 52°25' E 004°50'0 0.0
2018-Feb-15 13:28N 52°25' E 004°50'0 0.0
2018-Feb-15 12:58N 52°25' E 004°50'0 0.0
2018-Feb-15 12:28N 52°25' E 004°50'0 0.0
2018-Feb-15 11:58N 52°25' E 004°50'0 0.0
2018-Feb-15 11:28N 52°25' E 004°50'0 0.0
2018-Feb-15 10:58N 52°25' E 004°50'0 0.0
2018-Feb-15 10:28N 52°25' E 004°50'0 0.0
2018-Feb-15 09:52N 52°25' E 004°50'0 0.0
2018-Feb-15 09:28N 52°25' E 004°50'0 0.0
2018-Feb-15 08:22N 52°25' E 004°50'0 0.0
2018-Feb-15 07:55N 52°25' E 004°50'0 0.0
2018-Feb-15 07:28N 52°25' E 004°50'0 0.0
2018-Feb-15 06:55N 52°25' E 004°50'0 0.0
2018-Feb-15 06:19N 52°25' E 004°50'0 0.0
2018-Feb-15 05:58N 52°25' E 004°50'0 0.0
2018-Feb-15 05:22N 52°25' E 004°50'0 0.0
2018-Feb-15 04:58N 52°25' E 004°50'0 0.0
2018-Feb-15 04:19N 52°25' E 004°50'0 0.0
2018-Feb-15 03:49N 52°25' E 004°50'0 0.0
2018-Feb-15 03:28N 52°25' E 004°50'0 0.0
2018-Feb-15 02:58N 52°25' E 004°50'0 0.0
2018-Feb-15 02:25N 52°25' E 004°50'0 0.0
2018-Feb-15 01:58N 52°25' E 004°50'0 0.0
2018-Feb-15 01:28N 52°25' E 004°50'0 0.0
2018-Feb-15 00:58N 52°25' E 004°50'0 0.0
2018-Feb-15 00:16N 52°25' E 004°50'0 0.0
2018-Feb-14 23:58N 52°25' E 004°50'0 0.0
2018-Feb-14 23:28N 52°25' E 004°50'0 0.0
2018-Feb-14 22:52N 52°25' E 004°50'0 0.0
2018-Feb-14 22:28N 52°25' E 004°50'0 0.0
2018-Feb-14 21:49N 52°25' E 004°50'0 0.0
2018-Feb-14 21:25N 52°25' E 004°50'0 0.0
2018-Feb-14 20:55N 52°25' E 004°50'0 0.0
2018-Feb-14 20:28N 52°25' E 004°50'0 0.0
2018-Feb-14 19:58N 52°25' E 004°50'0 0.0
2018-Feb-14 19:28N 52°25' E 004°50'0 0.0
2018-Feb-14 18:55N 52°25' E 004°50'0 0.0
2018-Feb-14 18:22N 52°25' E 004°50'0 0.0
2018-Feb-14 17:58N 52°25' E 004°50'0 0.0
2018-Feb-14 17:28N 52°25' E 004°50'0 0.0
2018-Feb-14 16:58N 52°25' E 004°50'0 0.0
2018-Feb-14 16:28N 52°25' E 004°50'0 0.0
2018-Feb-14 15:55N 52°25' E 004°50'0 0.0
2018-Feb-14 15:28N 52°25' E 004°50'0 0.0
2018-Feb-14 14:58N 52°25' E 004°50'0 0.0
2018-Feb-14 14:28N 52°25' E 004°50'0 0.0
2018-Feb-14 13:55N 52°25' E 004°50'0 0.0
2018-Feb-14 13:28N 52°25' E 004°50'0 0.0
2018-Feb-14 12:55N 52°25' E 004°50'0 0.0
2018-Feb-14 12:28N 52°25' E 004°50'0 0.0
2018-Feb-14 11:58N 52°25' E 004°50'0 0.0
2018-Feb-14 11:16N 52°25' E 004°50'0 0.0
2018-Feb-14 10:46N 52°25' E 004°50'0 0.0
2018-Feb-14 10:28N 52°25' E 004°50'0 0.0
2018-Feb-14 09:58N 52°25' E 004°50'0 0.0
2018-Feb-14 09:25N 52°25' E 004°50'0 0.0
2018-Feb-14 08:58N 52°25' E 004°50'0 0.0
2018-Feb-14 08:28N 52°25' E 004°50'0 0.0
2018-Feb-14 07:58N 52°25' E 004°50'0 0.0
2018-Feb-14 07:28N 52°25' E 004°50'0 0.0
2018-Feb-14 06:55N 52°25' E 004°50'0 0.0
2018-Feb-14 06:22N 52°25' E 004°50'0 0.0
2018-Feb-14 05:58N 52°25' E 004°50'0 0.0
2018-Feb-14 05:28N 52°25' E 004°50'0 0.0
2018-Feb-14 04:58N 52°25' E 004°50'0 0.0
2018-Feb-14 04:25N 52°25' E 004°50'0 0.0
2018-Feb-14 03:55N 52°25' E 004°50'0 0.0
2018-Feb-14 03:25N 52°25' E 004°50'0 0.0
2018-Feb-14 02:52N 52°25' E 004°50'0 0.0
2018-Feb-14 02:28N 52°25' E 004°50'0 0.0
2018-Feb-14 01:55N 52°25' E 004°50'0 0.0
2018-Feb-14 01:28N 52°25' E 004°50'0 0.0
2018-Feb-14 00:52N 52°25' E 004°50'0 0.0
2018-Feb-14 00:28N 52°25' E 004°50'0 0.0
2018-Feb-13 23:58N 52°25' E 004°50'0 0.0
2018-Feb-13 23:28N 52°25' E 004°50'0 0.0
2018-Feb-13 22:52N 52°25' E 004°50'0 0.0
2018-Feb-13 22:28N 52°25' E 004°50'0 0.0
2018-Feb-13 21:55N 52°25' E 004°50'0 0.0
2018-Feb-13 21:25N 52°25' E 004°50'0 0.0
2018-Feb-13 20:55N 52°25' E 004°50'0 0.0
2018-Feb-13 20:28N 52°25' E 004°50'0 0.0
2018-Feb-13 19:55N 52°25' E 004°50'0 0.0
2018-Feb-13 19:25N 52°25' E 004°50'0 0.0
2018-Feb-13 18:55N 52°25' E 004°50'0 0.0
2018-Feb-13 18:25N 52°25' E 004°50'0 0.0
2018-Feb-13 17:55N 52°25' E 004°50'0 0.0
2018-Feb-13 17:28N 52°25' E 004°50'0 0.0
2018-Feb-13 16:55N 52°25' E 004°50'0 0.0
2018-Feb-13 16:25N 52°25' E 004°50'0 0.0
2018-Feb-13 15:55N 52°25' E 004°50'0 0.0
2018-Feb-13 15:10N 52°25' E 004°50'0 0.0
2018-Feb-13 14:55N 52°25' E 004°50'0 0.0
2018-Feb-13 14:28N 52°25' E 004°50'0 0.0
2018-Feb-13 13:58N 52°25' E 004°50'0 0.0
2018-Feb-13 13:28N 52°25' E 004°50'0 0.0
2018-Feb-13 12:58N 52°25' E 004°50'0 0.0
2018-Feb-13 12:28N 52°25' E 004°50'0 0.0
2018-Feb-13 11:58N 52°25' E 004°50'0 0.0
2018-Feb-13 11:25N 52°25' E 004°50'0 0.0
2018-Feb-13 10:49N 52°25' E 004°50'0 0.0
2018-Feb-13 10:28N 52°25' E 004°50'0 0.0
2018-Feb-13 09:58N 52°25' E 004°50'0 0.0
2018-Feb-13 09:25N 52°25' E 004°50'0 0.0
2018-Feb-13 08:58N 52°25' E 004°50'0 0.0
2018-Feb-13 08:25N 52°25' E 004°50'0 0.0
2018-Feb-13 07:52N 52°25' E 004°50'0 0.0
2018-Feb-13 07:28N 52°25' E 004°50'0 0.0
2018-Feb-13 06:58N 52°25' E 004°50'0 0.0
2018-Feb-13 06:28N 52°25' E 004°50'0 0.0
2018-Feb-13 05:55N 52°25' E 004°50'0 0.0
2018-Feb-13 05:25N 52°25' E 004°50'0 0.0
2018-Feb-13 04:55N 52°25' E 004°50'0 0.0
2018-Feb-13 04:22N 52°25' E 004°50'0 0.0
2018-Feb-13 03:58N 52°25' E 004°50'0 0.0
2018-Feb-13 03:28N 52°25' E 004°50'0 0.0
2018-Feb-13 02:55N 52°25' E 004°50'0 0.0
2018-Feb-13 02:28N 52°25' E 004°50'0 0.0
2018-Feb-13 01:58N 52°25' E 004°50'0 0.0
2018-Feb-13 01:28N 52°25' E 004°50'0 0.0
2018-Feb-13 00:55N 52°25' E 004°50'0 0.0
2018-Feb-13 00:28N 52°25' E 004°50'0 0.0
2018-Feb-12 23:58N 52°25' E 004°50'0 0.0
2018-Feb-12 23:28N 52°25' E 004°50'0 0.0
2018-Feb-12 22:58N 52°25' E 004°50'0 0.0
2018-Feb-12 22:22N 52°25' E 004°50'0 0.0
2018-Feb-12 21:55N 52°25' E 004°50'0 0.0
2018-Feb-12 21:28N 52°25' E 004°50'0 0.0
2018-Feb-12 20:58N 52°25' E 004°50'0 0.0
2018-Feb-12 20:28N 52°25' E 004°50'0 0.0
2018-Feb-12 19:55N 52°25' E 004°50'0 0.0
2018-Feb-12 19:28N 52°25' E 004°50'0 0.0
2018-Feb-12 18:58N 52°25' E 004°50'0 0.0
2018-Feb-12 18:28N 52°25' E 004°50'0 0.0
2018-Feb-12 17:58N 52°25' E 004°50'0 0.0
2018-Feb-12 17:28N 52°25' E 004°50'0 0.0
2018-Feb-12 16:58N 52°25' E 004°50'0 0.0
2018-Feb-12 16:22N 52°25' E 004°50'0 0.0
2018-Feb-12 15:37N 52°25' E 004°50'0 0.0
2018-Feb-12 15:28N 52°25' E 004°50'0 0.0
2018-Feb-12 14:49N 52°25' E 004°50'0 0.0
2018-Feb-12 14:25N 52°25' E 004°50'0 0.0
2018-Feb-12 13:55N 52°25' E 004°50'0 0.0
2018-Feb-12 13:28N 52°25' E 004°50'0 0.0
2018-Feb-12 12:58N 52°25' E 004°50'0 0.0
2018-Feb-12 12:22N 52°25' E 004°50'0 0.0
2018-Feb-12 11:58N 52°25' E 004°50'0 0.0
2018-Feb-12 11:22N 52°25' E 004°50'0 0.0
2018-Feb-12 10:55N 52°25' E 004°50'0 0.0
2018-Feb-12 10:25N 52°25' E 004°50'0 0.0
2018-Feb-12 09:58N 52°25' E 004°50'0 0.0
2018-Feb-12 09:19N 52°25' E 004°50'0 0.0
2018-Feb-12 08:58N 52°25' E 004°50'0 0.0
2018-Feb-12 08:28N 52°25' E 004°50'0 0.0
2018-Feb-12 07:58N 52°25' E 004°50'0 0.0
2018-Feb-12 07:22N 52°25' E 004°50'0 0.0
2018-Feb-12 06:52N 52°25' E 004°50'0 0.0
2018-Feb-12 06:07N 52°25' E 004°50'0 0.0
2018-Feb-12 05:58N 52°25' E 004°50'0 0.0
2018-Feb-12 05:25N 52°25' E 004°50'0 0.0
2018-Feb-12 04:58N 52°25' E 004°50'0 0.0
2018-Feb-12 04:28N 52°25' E 004°50'0 0.0
2018-Feb-12 03:58N 52°25' E 004°50'0 0.0
2018-Feb-12 03:25N 52°25' E 004°50'0 0.4
2018-Feb-12 03:01N 52°25' E 004°50'2 3.7
2018-Feb-12 02:30N 52°25' E 004°48'4 8.4
2018-Feb-12 02:00N 52°27' E 004°41'3 6.0
2018-Feb-12 01:30N 52°28' E 004°36'0 1.0
2018-Feb-12 01:00N 52°28' E 004°36'2 4.6
2018-Feb-12 00:31N 52°28' E 004°32'4 9.0
2018-Feb-12 00:01N 52°29' E 004°25'3 6.6
2018-Feb-11 23:31N 52°28' E 004°19'3 6.5
2018-Feb-11 23:01N 52°29' E 004°14'1 1.3
2018-Feb-11 22:31N 52°29' E 004°13'4 8.0
2018-Feb-11 22:01N 52°29' E 004°06'510.1
2018-Feb-11 21:30N 52°25' E 004°00'0 0.2
2018-Feb-11 21:00N 52°25' E 004°00'0 0.2
2018-Feb-11 20:30N 52°25' E 004°00'0 0.0
2018-Feb-11 20:00N 52°25' E 004°00'0 0.0
2018-Feb-11 19:27N 52°25' E 004°00'0 0.0
2018-Feb-11 19:00N 52°25' E 004°00'0 0.0
2018-Feb-11 18:30N 52°25' E 004°00'0 0.0
2018-Feb-11 17:54N 52°25' E 004°00'0 0.1
2018-Feb-11 17:27N 52°25' E 004°00'0 0.0
2018-Feb-11 17:00N 52°25' E 004°00'0 0.0
2018-Feb-11 16:30N 52°25' E 004°00'0 0.1
2018-Feb-11 16:00N 52°25' E 004°00'0 0.0
2018-Feb-11 15:30N 52°25' E 004°00'0 0.0
2018-Feb-11 15:00N 52°25' E 004°00'0 0.1
2018-Feb-11 14:31N 52°25' E 004°00'1 2.8
2018-Feb-11 14:00N 52°25' E 003°58'612.8
2018-Feb-11 13:30N 52°26' E 003°48'713.7
2018-Feb-11 13:00N 52°24' E 003°37'3712.5
2018-Feb-11 10:01N 51°52' E 003°06'111.7
2018-Feb-11 09:59N 51°52' E 003°07'611.8
2018-Feb-11 09:30N 51°47' E 003°13'611.4
2018-Feb-11 09:00N 51°42' E 003°18'510.4
2018-Feb-11 08:31N 51°38' E 003°21'611.5
2018-Feb-11 08:00N 51°33' E 003°25'510.8
2018-Feb-11 07:30N 51°28' E 003°31'5 9.1
2018-Feb-11 07:00N 51°25' E 003°36'3 6.5
2018-Feb-11 06:30N 51°26' E 003°42'611.5
2018-Feb-11 06:00N 51°21' E 003°47'2 3.8
2018-Feb-11 05:28N 51°20' E 003°49'1 1.4
2018-Feb-11 05:00N 51°19' E 003°50'3 6.6
2018-Feb-11 04:30N 51°16' E 003°50'3 6.8
2018-Feb-11 04:00N 51°13' E 003°48'3 6.9
2018-Feb-11 03:31N 51°09' E 003°47'1 1.0
2018-Feb-11 03:00N 51°09' E 003°47'0 0.0
2018-Feb-11 02:26N 51°09' E 003°47'0 0.0
2018-Feb-11 01:56N 51°09' E 003°47'0 0.0
2018-Feb-11 01:26N 51°09' E 003°47'0 0.0
2018-Feb-11 01:00N 51°09' E 003°47'0 0.0
2018-Feb-11 00:14N 51°09' E 003°47'0 0.0
2018-Feb-10 23:59N 51°09' E 003°47'0 0.0
2018-Feb-10 23:26N 51°09' E 003°47'0 0.0
2018-Feb-10 22:56N 51°09' E 003°47'0 0.0
2018-Feb-10 22:26N 51°09' E 003°47'0 0.0
2018-Feb-10 21:38N 51°09' E 003°47'0 0.0
2018-Feb-10 21:20N 51°09' E 003°47'0 0.0
2018-Feb-10 20:56N 51°09' E 003°47'0 0.0
2018-Feb-10 20:18N 51°09' E 003°47'0 0.0
2018-Feb-10 19:56N 51°09' E 003°47'0 0.0
2018-Feb-10 19:29N 51°09' E 003°47'0 0.0
2018-Feb-10 18:56N 51°09' E 003°47'0 0.0
2018-Feb-10 18:24N 51°09' E 003°47'0 0.0
2018-Feb-10 17:56N 51°09' E 003°47'0 0.0
2018-Feb-10 17:26N 51°09' E 003°47'0 0.0
2018-Feb-10 16:56N 51°09' E 003°47'0 0.0
2018-Feb-10 16:26N 51°09' E 003°47'0 0.0
2018-Feb-10 15:56N 51°09' E 003°47'0 0.0
2018-Feb-10 15:20N 51°09' E 003°47'0 0.0
2018-Feb-10 14:56N 51°09' E 003°47'0 0.0
2018-Feb-10 14:27N 51°09' E 003°47'0 0.0
2018-Feb-10 13:56N 51°09' E 003°47'0 0.0
2018-Feb-10 13:26N 51°09' E 003°47'0 0.0
2018-Feb-10 12:56N 51°09' E 003°47'0 0.0
2018-Feb-10 12:26N 51°09' E 003°47'0 0.0
2018-Feb-10 11:44N 51°09' E 003°47'0 0.0
2018-Feb-10 11:26N 51°09' E 003°47'0 0.0
2018-Feb-10 10:56N 51°09' E 003°47'0 0.0
2018-Feb-10 10:26N 51°09' E 003°47'0 0.0
2018-Feb-10 09:35N 51°09' E 003°47'0 0.0
2018-Feb-10 09:23N 51°09' E 003°47'0 0.0
2018-Feb-10 08:50N 51°09' E 003°47'0 0.0
2018-Feb-10 08:20N 51°09' E 003°47'0 0.0
2018-Feb-10 07:56N 51°09' E 003°47'0 0.0
2018-Feb-10 07:29N 51°09' E 003°47'0 0.0
2018-Feb-10 06:56N 51°09' E 003°47'0 0.0
2018-Feb-10 06:15N 51°09' E 003°47'0 0.0
2018-Feb-10 05:56N 51°09' E 003°47'0 0.0
2018-Feb-10 05:30N 51°09' E 003°47'0 0.0
2018-Feb-10 04:59N 51°09' E 003°47'0 0.0
2018-Feb-10 04:26N 51°09' E 003°47'0 0.0
2018-Feb-10 04:00N 51°09' E 003°47'0 0.0
2018-Feb-10 03:15N 51°09' E 003°47'0 0.0
2018-Feb-10 02:56N 51°09' E 003°47'0 0.0
2018-Feb-10 02:26N 51°09' E 003°47'0 0.0
2018-Feb-10 01:56N 51°09' E 003°47'0 0.0
2018-Feb-10 01:26N 51°09' E 003°47'0 0.0
2018-Feb-10 00:56N 51°09' E 003°47'0 0.0
2018-Feb-10 00:26N 51°09' E 003°47'0 0.0
2018-Feb-09 23:56N 51°09' E 003°47'0 0.0
2018-Feb-09 23:30N 51°09' E 003°47'0 0.0
2018-Feb-09 22:56N 51°09' E 003°47'0 0.0
2018-Feb-09 22:44N 51°09' E 003°47'3 0.2
2018-Feb-09 07:30N 51°12' E 003°48'3 5.2
2018-Feb-09 07:00N 51°15' E 003°49'6 3.0
2018-Feb-09 05:00N 51°21' E 003°49'8 8.4
2018-Feb-09 04:00N 51°26' E 003°39'21 8.3
2018-Feb-09 01:30N 51°24' E 003°06'1111.4
2018-Feb-09 00:30N 51°25' E 002°48'7 7.0
2018-Feb-08 23:30N 51°25' E 002°37'  
Track history (hours):
 
Tides and Currents Weather Stations Pressure Air Temp Water Temp Dewpoint Dewpoint Depression Visibility Wind Speed Wind Dir Waves Ship Positions

Andes

Last reported at 2018-Feb-18 10:27 UTC. Time now 2018-Feb-19 23:48 UTC.
Position N 49°44' W 003°50'.

Length 182 m; draft 11.2 m.

Type: Tanker. MMSI: 209394000.

Date/timePositionNaut miles runAvg speedWind from/ knotsBaromVisibWave heightAir tempDewpointWater temp
2018-Feb-18 10:27N 49°44' W 003°50'812.9
2018-Feb-18 09:49N 49°48' W 003°38'412.4
2018-Feb-18 09:30N 49°49' W 003°32'711.9
2018-Feb-18 08:56N 49°52' W 003°23'511.5
2018-Feb-18 08:30N 49°53' W 003°15'611.3
2018-Feb-18 08:00N 49°56' W 003°07'611.3
2018-Feb-18 07:30N 49°58' W 002°59'611.6
2018-Feb-18 06:59N 50°00' W 002°51'612.1
2018-Feb-18 06:31N 50°03' W 002°43'712.9
2018-Feb-18 05:59N 50°04' W 002°32'1714.4
2018-Feb-18 04:48N 50°08' W 002°06'515.9
2018-Feb-18 04:31N 50°09' W 001°59'816.5
2018-Feb-18 04:00N 50°11' W 001°47'816.8
2018-Feb-18 03:30N 50°13' W 001°34'816.7
2018-Feb-18 03:01N 50°16' W 001°22'2315.8
2018-Feb-18 01:31N 50°22' W 000°46'1613.7
2018-Feb-18 00:22N 50°26' W 000°22'512.7
2018-Feb-18 00:00N 50°28' W 000°16'612.4
2018-Feb-17 23:30N 50°29' W 000°06'611.7
2018-Feb-17 23:00N 50°31' E 000°03'611.3
2018-Feb-17 22:29N 50°33' E 000°12'511.0
2018-Feb-17 22:00N 50°34' E 000°20'611.2
2018-Feb-17 21:30N 50°35' E 000°28'612.0
2018-Feb-17 21:00N 50°37' E 000°37'612.9
2018-Feb-17 20:30N 50°40' E 000°46'713.9
2018-Feb-17 20:00N 50°45' E 000°54'714.8
2018-Feb-17 19:30N 50°50' E 001°03'815.1
2018-Feb-17 19:00N 50°55' E 001°11'815.3
2018-Feb-17 18:30N 51°00' E 001°20'714.9
2018-Feb-17 18:00N 51°05' E 001°29'713.8
2018-Feb-17 17:30N 51°09' E 001°38'612.9
2018-Feb-17 17:00N 51°14' E 001°45'612.5
2018-Feb-17 16:30N 51°19' E 001°49'611.8
2018-Feb-17 16:00N 51°25' E 001°53'611.3
2018-Feb-17 15:30N 51°29' E 001°58'611.6
2018-Feb-17 15:00N 51°34' E 002°05'611.6
2018-Feb-17 14:30N 51°38' E 002°11'611.5
2018-Feb-17 14:00N 51°42' E 002°17'611.9
2018-Feb-17 13:29N 51°47' E 002°24'3913.8
2018-Feb-17 10:39N 52°16' E 003°07'314.9
2018-Feb-17 10:26N 52°18' E 003°10'714.7
2018-Feb-17 09:59N 52°23' E 003°18'714.5
2018-Feb-17 09:30N 52°25' E 003°28'814.3
2018-Feb-17 08:59N 52°28' E 003°40'714.0
2018-Feb-17 08:30N 52°30' E 003°50'713.4
2018-Feb-17 08:00N 52°31' E 004°01'713.2
2018-Feb-17 07:31N 52°31' E 004°12'612.5
2018-Feb-17 07:00N 52°29' E 004°22'611.0
2018-Feb-17 06:31N 52°28' E 004°31'4 7.2
2018-Feb-17 06:00N 52°28' E 004°37'0 0.0
2018-Feb-17 05:31N 52°28' E 004°37'2 4.7
2018-Feb-17 05:00N 52°27' E 004°40'4 7.5
2018-Feb-17 04:30N 52°26' E 004°46'3 5.9
2018-Feb-17 04:00N 52°25' E 004°51'0 0.7
2018-Feb-17 03:28N 52°25' E 004°50'0 0.0
2018-Feb-17 02:58N 52°25' E 004°50'0 0.0
2018-Feb-17 02:25N 52°25' E 004°50'0 0.0
2018-Feb-17 01:55N 52°25' E 004°50'0 0.0
2018-Feb-17 01:28N 52°25' E 004°50'0 0.0
2018-Feb-17 00:55N 52°25' E 004°50'0 0.0
2018-Feb-17 00:28N 52°25' E 004°50'0 0.0
2018-Feb-16 23:58N 52°25' E 004°50'0 0.0
2018-Feb-16 23:28N 52°25' E 004°50'0 0.0
2018-Feb-16 22:55N 52°25' E 004°50'0 0.0
2018-Feb-16 22:28N 52°25' E 004°50'0 0.0
2018-Feb-16 21:58N 52°25' E 004°50'0 0.0
2018-Feb-16 21:28N 52°25' E 004°50'0 0.0
2018-Feb-16 20:58N 52°25' E 004°50'0 0.0
2018-Feb-16 20:25N 52°25' E 004°50'0 0.0
2018-Feb-16 19:55N 52°25' E 004°50'0 0.0
2018-Feb-16 19:22N 52°25' E 004°50'0 0.0
2018-Feb-16 18:55N 52°25' E 004°50'0 0.0
2018-Feb-16 18:25N 52°25' E 004°50'0 0.0
2018-Feb-16 17:58N 52°25' E 004°50'0 0.0
2018-Feb-16 17:22N 52°25' E 004°50'0 0.0
2018-Feb-16 16:49N 52°25' E 004°50'0 0.0
2018-Feb-16 16:25N 52°25' E 004°50'0 0.0
2018-Feb-16 15:55N 52°25' E 004°50'0 0.0
2018-Feb-16 15:28N 52°25' E 004°50'0 0.0
2018-Feb-16 14:55N 52°25' E 004°50'0 0.0
2018-Feb-16 14:25N 52°25' E 004°50'0 0.0
2018-Feb-16 13:55N 52°25' E 004°50'0 0.0
2018-Feb-16 13:25N 52°25' E 004°50'0 0.0
2018-Feb-16 12:55N 52°25' E 004°50'0 0.0
2018-Feb-16 12:28N 52°25' E 004°50'0 0.0
2018-Feb-16 11:58N 52°25' E 004°50'0 0.0
2018-Feb-16 11:25N 52°25' E 004°50'0 0.0
2018-Feb-16 10:55N 52°25' E 004°50'0 0.0
2018-Feb-16 10:28N 52°25' E 004°50'0 0.0
2018-Feb-16 09:55N 52°25' E 004°50'0 0.0
2018-Feb-16 09:28N 52°25' E 004°50'0 0.0
2018-Feb-16 08:58N 52°25' E 004°50'0 0.0
2018-Feb-16 08:16N 52°25' E 004°50'0 0.0
2018-Feb-16 07:55N 52°25' E 004°50'0 0.0
2018-Feb-16 07:28N 52°25' E 004°50'0 0.0
2018-Feb-16 06:55N 52°25' E 004°50'0 0.0
2018-Feb-16 06:22N 52°25' E 004°50'0 0.0
2018-Feb-16 05:58N 52°25' E 004°50'0 0.0
2018-Feb-16 05:28N 52°25' E 004°50'0 0.0
2018-Feb-16 04:55N 52°25' E 004°50'0 0.0
2018-Feb-16 04:25N 52°25' E 004°50'0 0.0
2018-Feb-16 03:58N 52°25' E 004°50'0 0.0
2018-Feb-16 03:28N 52°25' E 004°50'0 0.0
2018-Feb-16 02:58N 52°25' E 004°50'0 0.0
2018-Feb-16 02:28N 52°25' E 004°50'0 0.0
2018-Feb-16 01:58N 52°25' E 004°50'0 0.0
2018-Feb-16 01:28N 52°25' E 004°50'0 0.0
2018-Feb-16 00:58N 52°25' E 004°50'0 0.0
2018-Feb-16 00:22N 52°25' E 004°50'0 0.0
2018-Feb-15 23:55N 52°25' E 004°50'0 0.0
2018-Feb-15 23:28N 52°25' E 004°50'0 0.0
2018-Feb-15 22:52N 52°25' E 004°50'0 0.0
2018-Feb-15 22:28N 52°25' E 004°50'0 0.0
2018-Feb-15 21:58N 52°25' E 004°50'0 0.0
2018-Feb-15 21:25N 52°25' E 004°50'0 0.0
2018-Feb-15 20:58N 52°25' E 004°50'0 0.0
2018-Feb-15 20:13N 52°25' E 004°50'0 0.0
2018-Feb-15 19:58N 52°25' E 004°50'0 0.0
2018-Feb-15 19:28N 52°25' E 004°50'0 0.0
2018-Feb-15 18:58N 52°25' E 004°50'0 0.0
2018-Feb-15 18:22N 52°25' E 004°50'0 0.0
2018-Feb-15 17:49N 52°25' E 004°50'0 0.0
2018-Feb-15 17:25N 52°25' E 004°50'0 0.0
2018-Feb-15 16:58N 52°25' E 004°50'0 0.0
2018-Feb-15 16:25N 52°25' E 004°50'0 0.0
2018-Feb-15 15:55N 52°25' E 004°50'0 0.0
2018-Feb-15 15:25N 52°25' E 004°50'0 0.0
2018-Feb-15 14:58N 52°25' E 004°50'0 0.0
2018-Feb-15 14:25N 52°25' E 004°50'0 0.0
2018-Feb-15 13:55N 52°25' E 004°50'0 0.0
2018-Feb-15 13:28N 52°25' E 004°50'0 0.0
2018-Feb-15 12:58N 52°25' E 004°50'0 0.0
2018-Feb-15 12:28N 52°25' E 004°50'0 0.0
2018-Feb-15 11:58N 52°25' E 004°50'0 0.0
2018-Feb-15 11:28N 52°25' E 004°50'0 0.0
2018-Feb-15 10:58N 52°25' E 004°50'0 0.0
2018-Feb-15 10:28N 52°25' E 004°50'0 0.0
2018-Feb-15 09:52N 52°25' E 004°50'0 0.0
2018-Feb-15 09:28N 52°25' E 004°50'0 0.0
2018-Feb-15 08:22N 52°25' E 004°50'0 0.0
2018-Feb-15 07:55N 52°25' E 004°50'0 0.0
2018-Feb-15 07:28N 52°25' E 004°50'0 0.0
2018-Feb-15 06:55N 52°25' E 004°50'0 0.0
2018-Feb-15 06:19N 52°25' E 004°50'0 0.0
2018-Feb-15 05:58N 52°25' E 004°50'0 0.0
2018-Feb-15 05:22N 52°25' E 004°50'0 0.0
2018-Feb-15 04:58N 52°25' E 004°50'0 0.0
2018-Feb-15 04:19N 52°25' E 004°50'0 0.0
2018-Feb-15 03:49N 52°25' E 004°50'0 0.0
2018-Feb-15 03:28N 52°25' E 004°50'0 0.0
2018-Feb-15 02:58N 52°25' E 004°50'0 0.0
2018-Feb-15 02:25N 52°25' E 004°50'0 0.0
2018-Feb-15 01:58N 52°25' E 004°50'0 0.0
2018-Feb-15 01:28N 52°25' E 004°50'0 0.0
2018-Feb-15 00:58N 52°25' E 004°50'0 0.0
2018-Feb-15 00:16N 52°25' E 004°50'0 0.0
2018-Feb-14 23:58N 52°25' E 004°50'0 0.0
2018-Feb-14 23:28N 52°25' E 004°50'0 0.0
2018-Feb-14 22:52N 52°25' E 004°50'0 0.0
2018-Feb-14 22:28N 52°25' E 004°50'0 0.0
2018-Feb-14 21:49N 52°25' E 004°50'0 0.0
2018-Feb-14 21:25N 52°25' E 004°50'0 0.0
2018-Feb-14 20:55N 52°25' E 004°50'0 0.0
2018-Feb-14 20:28N 52°25' E 004°50'0 0.0
2018-Feb-14 19:58N 52°25' E 004°50'0 0.0
2018-Feb-14 19:28N 52°25' E 004°50'0 0.0
2018-Feb-14 18:55N 52°25' E 004°50'0 0.0
2018-Feb-14 18:22N 52°25' E 004°50'0 0.0
2018-Feb-14 17:58N 52°25' E 004°50'0 0.0
2018-Feb-14 17:28N 52°25' E 004°50'0 0.0
2018-Feb-14 16:58N 52°25' E 004°50'0 0.0
2018-Feb-14 16:28N 52°25' E 004°50'0 0.0
2018-Feb-14 15:55N 52°25' E 004°50'0 0.0
2018-Feb-14 15:28N 52°25' E 004°50'0 0.0
2018-Feb-14 14:58N 52°25' E 004°50'0 0.0
2018-Feb-14 14:28N 52°25' E 004°50'0 0.0
2018-Feb-14 13:55N 52°25' E 004°50'0 0.0
2018-Feb-14 13:28N 52°25' E 004°50'0 0.0
2018-Feb-14 12:55N 52°25' E 004°50'0 0.0
2018-Feb-14 12:28N 52°25' E 004°50'0 0.0
2018-Feb-14 11:58N 52°25' E 004°50'0 0.0
2018-Feb-14 11:16N 52°25' E 004°50'0 0.0
2018-Feb-14 10:46N 52°25' E 004°50'0 0.0
2018-Feb-14 10:28N 52°25' E 004°50'0 0.0
2018-Feb-14 09:58N 52°25' E 004°50'0 0.0
2018-Feb-14 09:25N 52°25' E 004°50'0 0.0
2018-Feb-14 08:58N 52°25' E 004°50'0 0.0
2018-Feb-14 08:28N 52°25' E 004°50'0 0.0
2018-Feb-14 07:58N 52°25' E 004°50'0 0.0
2018-Feb-14 07:28N 52°25' E 004°50'0 0.0
2018-Feb-14 06:55N 52°25' E 004°50'0 0.0
2018-Feb-14 06:22N 52°25' E 004°50'0 0.0
2018-Feb-14 05:58N 52°25' E 004°50'0 0.0
2018-Feb-14 05:28N 52°25' E 004°50'0 0.0
2018-Feb-14 04:58N 52°25' E 004°50'0 0.0
2018-Feb-14 04:25N 52°25' E 004°50'0 0.0
2018-Feb-14 03:55N 52°25' E 004°50'0 0.0
2018-Feb-14 03:25N 52°25' E 004°50'0 0.0
2018-Feb-14 02:52N 52°25' E 004°50'0 0.0
2018-Feb-14 02:28N 52°25' E 004°50'0 0.0
2018-Feb-14 01:55N 52°25' E 004°50'0 0.0
2018-Feb-14 01:28N 52°25' E 004°50'0 0.0
2018-Feb-14 00:52N 52°25' E 004°50'0 0.0
2018-Feb-14 00:28N 52°25' E 004°50'0 0.0
2018-Feb-13 23:58N 52°25' E 004°50'0 0.0
2018-Feb-13 23:28N 52°25' E 004°50'0 0.0
2018-Feb-13 22:52N 52°25' E 004°50'0 0.0
2018-Feb-13 22:28N 52°25' E 004°50'0 0.0
2018-Feb-13 21:55N 52°25' E 004°50'0 0.0
2018-Feb-13 21:25N 52°25' E 004°50'0 0.0
2018-Feb-13 20:55N 52°25' E 004°50'0 0.0
2018-Feb-13 20:28N 52°25' E 004°50'0 0.0
2018-Feb-13 19:55N 52°25' E 004°50'0 0.0
2018-Feb-13 19:25N 52°25' E 004°50'0 0.0
2018-Feb-13 18:55N 52°25' E 004°50'0 0.0
2018-Feb-13 18:25N 52°25' E 004°50'0 0.0
2018-Feb-13 17:55N 52°25' E 004°50'0 0.0
2018-Feb-13 17:28N 52°25' E 004°50'0 0.0
2018-Feb-13 16:55N 52°25' E 004°50'0 0.0
2018-Feb-13 16:25N 52°25' E 004°50'0 0.0
2018-Feb-13 15:55N 52°25' E 004°50'0 0.0
2018-Feb-13 15:10N 52°25' E 004°50'0 0.0
2018-Feb-13 14:55N 52°25' E 004°50'0 0.0
2018-Feb-13 14:28N 52°25' E 004°50'0 0.0
2018-Feb-13 13:58N 52°25' E 004°50'0 0.0
2018-Feb-13 13:28N 52°25' E 004°50'0 0.0
2018-Feb-13 12:58N 52°25' E 004°50'0 0.0
2018-Feb-13 12:28N 52°25' E 004°50'0 0.0
2018-Feb-13 11:58N 52°25' E 004°50'0 0.0
2018-Feb-13 11:25N 52°25' E 004°50'0 0.0
2018-Feb-13 10:49N 52°25' E 004°50'0 0.0
2018-Feb-13 10:28N 52°25' E 004°50'0 0.0
2018-Feb-13 09:58N 52°25' E 004°50'0 0.0
2018-Feb-13 09:25N 52°25' E 004°50'0 0.0
2018-Feb-13 08:58N 52°25' E 004°50'0 0.0
2018-Feb-13 08:25N 52°25' E 004°50'0 0.0
2018-Feb-13 07:52N 52°25' E 004°50'0 0.0
2018-Feb-13 07:28N 52°25' E 004°50'0 0.0
2018-Feb-13 06:58N 52°25' E 004°50'0 0.0
2018-Feb-13 06:28N 52°25' E 004°50'0 0.0
2018-Feb-13 05:55N 52°25' E 004°50'0 0.0
2018-Feb-13 05:25N 52°25' E 004°50'0 0.0
2018-Feb-13 04:55N 52°25' E 004°50'0 0.0
2018-Feb-13 04:22N 52°25' E 004°50'0 0.0
2018-Feb-13 03:58N 52°25' E 004°50'0 0.0
2018-Feb-13 03:28N 52°25' E 004°50'0 0.0
2018-Feb-13 02:55N 52°25' E 004°50'0 0.0
2018-Feb-13 02:28N 52°25' E 004°50'0 0.0
2018-Feb-13 01:58N 52°25' E 004°50'0 0.0
2018-Feb-13 01:28N 52°25' E 004°50'0 0.0
2018-Feb-13 00:55N 52°25' E 004°50'0 0.0
2018-Feb-13 00:28N 52°25' E 004°50'0 0.0
2018-Feb-12 23:58N 52°25' E 004°50'0 0.0
2018-Feb-12 23:28N 52°25' E 004°50'0 0.0
2018-Feb-12 22:58N 52°25' E 004°50'0 0.0
2018-Feb-12 22:22N 52°25' E 004°50'0 0.0
2018-Feb-12 21:55N 52°25' E 004°50'0 0.0
2018-Feb-12 21:28N 52°25' E 004°50'0 0.0
2018-Feb-12 20:58N 52°25' E 004°50'0 0.0
2018-Feb-12 20:28N 52°25' E 004°50'0 0.0
2018-Feb-12 19:55N 52°25' E 004°50'0 0.0
2018-Feb-12 19:28N 52°25' E 004°50'0 0.0
2018-Feb-12 18:58N 52°25' E 004°50'0 0.0
2018-Feb-12 18:28N 52°25' E 004°50'0 0.0
2018-Feb-12 17:58N 52°25' E 004°50'0 0.0
2018-Feb-12 17:28N 52°25' E 004°50'0 0.0
2018-Feb-12 16:58N 52°25' E 004°50'0 0.0
2018-Feb-12 16:22N 52°25' E 004°50'0 0.0
2018-Feb-12 15:37N 52°25' E 004°50'0 0.0
2018-Feb-12 15:28N 52°25' E 004°50'0 0.0
2018-Feb-12 14:49N 52°25' E 004°50'0 0.0
2018-Feb-12 14:25N 52°25' E 004°50'0 0.0
2018-Feb-12 13:55N 52°25' E 004°50'0 0.0
2018-Feb-12 13:28N 52°25' E 004°50'0 0.0
2018-Feb-12 12:58N 52°25' E 004°50'0 0.0
2018-Feb-12 12:22N 52°25' E 004°50'0 0.0
2018-Feb-12 11:58N 52°25' E 004°50'0 0.0
2018-Feb-12 11:22N 52°25' E 004°50'0 0.0
2018-Feb-12 10:55N 52°25' E 004°50'0 0.0
2018-Feb-12 10:25N 52°25' E 004°50'0 0.0
2018-Feb-12 09:58N 52°25' E 004°50'0 0.0
2018-Feb-12 09:19N 52°25' E 004°50'0 0.0
2018-Feb-12 08:58N 52°25' E 004°50'0 0.0
2018-Feb-12 08:28N 52°25' E 004°50'0 0.0
2018-Feb-12 07:58N 52°25' E 004°50'0 0.0
2018-Feb-12 07:22N 52°25' E 004°50'0 0.0
2018-Feb-12 06:52N 52°25' E 004°50'0 0.0
2018-Feb-12 06:07N 52°25' E 004°50'0 0.0
2018-Feb-12 05:58N 52°25' E 004°50'0 0.0
2018-Feb-12 05:25N 52°25' E 004°50'0 0.0
2018-Feb-12 04:58N 52°25' E 004°50'0 0.0
2018-Feb-12 04:28N 52°25' E 004°50'0 0.0
2018-Feb-12 03:58N 52°25' E 004°50'0 0.0
2018-Feb-12 03:25N 52°25' E 004°50'0 0.4
2018-Feb-12 03:01N 52°25' E 004°50'2 3.7
2018-Feb-12 02:30N 52°25' E 004°48'4 8.4
2018-Feb-12 02:00N 52°27' E 004°41'3 6.0
2018-Feb-12 01:30N 52°28' E 004°36'0 1.0
2018-Feb-12 01:00N 52°28' E 004°36'2 4.6
2018-Feb-12 00:31N 52°28' E 004°32'4 9.0
2018-Feb-12 00:01N 52°29' E 004°25'3 6.6
2018-Feb-11 23:31N 52°28' E 004°19'3 6.5
2018-Feb-11 23:01N 52°29' E 004°14'1 1.3
2018-Feb-11 22:31N 52°29' E 004°13'4 8.0
2018-Feb-11 22:01N 52°29' E 004°06'510.1
2018-Feb-11 21:30N 52°25' E 004°00'0 0.2
2018-Feb-11 21:00N 52°25' E 004°00'0 0.2
2018-Feb-11 20:30N 52°25' E 004°00'0 0.0
2018-Feb-11 20:00N 52°25' E 004°00'0 0.0
2018-Feb-11 19:27N 52°25' E 004°00'0 0.0
2018-Feb-11 19:00N 52°25' E 004°00'0 0.0
2018-Feb-11 18:30N 52°25' E 004°00'0 0.0
2018-Feb-11 17:54N 52°25' E 004°00'0 0.1
2018-Feb-11 17:27N 52°25' E 004°00'0 0.0
2018-Feb-11 17:00N 52°25' E 004°00'0 0.0
2018-Feb-11 16:30N 52°25' E 004°00'0 0.1
2018-Feb-11 16:00N 52°25' E 004°00'0 0.0
2018-Feb-11 15:30N 52°25' E 004°00'0 0.0
2018-Feb-11 15:00N 52°25' E 004°00'0 0.1
2018-Feb-11 14:31N 52°25' E 004°00'1 2.8
2018-Feb-11 14:00N 52°25' E 003°58'612.8
2018-Feb-11 13:30N 52°26' E 003°48'713.7
2018-Feb-11 13:00N 52°24' E 003°37'3712.5
2018-Feb-11 10:01N 51°52' E 003°06'111.7
2018-Feb-11 09:59N 51°52' E 003°07'611.8
2018-Feb-11 09:30N 51°47' E 003°13'611.4
2018-Feb-11 09:00N 51°42' E 003°18'510.4
2018-Feb-11 08:31N 51°38' E 003°21'611.5
2018-Feb-11 08:00N 51°33' E 003°25'510.8
2018-Feb-11 07:30N 51°28' E 003°31'5 9.1
2018-Feb-11 07:00N 51°25' E 003°36'3 6.5
2018-Feb-11 06:30N 51°26' E 003°42'611.5
2018-Feb-11 06:00N 51°21' E 003°47'2 3.8
2018-Feb-11 05:28N 51°20' E 003°49'1 1.4
2018-Feb-11 05:00N 51°19' E 003°50'3 6.6
2018-Feb-11 04:30N 51°16' E 003°50'3 6.8
2018-Feb-11 04:00N 51°13' E 003°48'3 6.9
2018-Feb-11 03:31N 51°09' E 003°47'1 1.0
2018-Feb-11 03:00N 51°09' E 003°47'0 0.0
2018-Feb-11 02:26N 51°09' E 003°47'0 0.0
2018-Feb-11 01:56N 51°09' E 003°47'0 0.0
2018-Feb-11 01:26N 51°09' E 003°47'0 0.0
2018-Feb-11 01:00N 51°09' E 003°47'0 0.0
2018-Feb-11 00:14N 51°09' E 003°47'0 0.0
2018-Feb-10 23:59N 51°09' E 003°47'0 0.0
2018-Feb-10 23:26N 51°09' E 003°47'0 0.0
2018-Feb-10 22:56N 51°09' E 003°47'0 0.0
2018-Feb-10 22:26N 51°09' E 003°47'0 0.0
2018-Feb-10 21:38N 51°09' E 003°47'0 0.0
2018-Feb-10 21:20N 51°09' E 003°47'0 0.0
2018-Feb-10 20:56N 51°09' E 003°47'0 0.0
2018-Feb-10 20:18N 51°09' E 003°47'0 0.0
2018-Feb-10 19:56N 51°09' E 003°47'0 0.0
2018-Feb-10 19:29N 51°09' E 003°47'0 0.0
2018-Feb-10 18:56N 51°09' E 003°47'0 0.0
2018-Feb-10 18:24N 51°09' E 003°47'0 0.0
2018-Feb-10 17:56N 51°09' E 003°47'0 0.0
2018-Feb-10 17:26N 51°09' E 003°47'0 0.0
2018-Feb-10 16:56N 51°09' E 003°47'0 0.0
2018-Feb-10 16:26N 51°09' E 003°47'0 0.0
2018-Feb-10 15:56N 51°09' E 003°47'0 0.0
2018-Feb-10 15:20N 51°09' E 003°47'0 0.0
2018-Feb-10 14:56N 51°09' E 003°47'0 0.0
2018-Feb-10 14:27N 51°09' E 003°47'0 0.0
2018-Feb-10 13:56N 51°09' E 003°47'0 0.0
2018-Feb-10 13:26N 51°09' E 003°47'0 0.0
2018-Feb-10 12:56N 51°09' E 003°47'0 0.0
2018-Feb-10 12:26N 51°09' E 003°47'0 0.0
2018-Feb-10 11:44N 51°09' E 003°47'0 0.0
2018-Feb-10 11:26N 51°09' E 003°47'0 0.0
2018-Feb-10 10:56N 51°09' E 003°47'0 0.0
2018-Feb-10 10:26N 51°09' E 003°47'0 0.0
2018-Feb-10 09:35N 51°09' E 003°47'0 0.0
2018-Feb-10 09:23N 51°09' E 003°47'0 0.0
2018-Feb-10 08:50N 51°09' E 003°47'0 0.0
2018-Feb-10 08:20N 51°09' E 003°47'0 0.0
2018-Feb-10 07:56N 51°09' E 003°47'0 0.0
2018-Feb-10 07:29N 51°09' E 003°47'0 0.0
2018-Feb-10 06:56N 51°09' E 003°47'0 0.0
2018-Feb-10 06:15N 51°09' E 003°47'0 0.0
2018-Feb-10 05:56N 51°09' E 003°47'0 0.0
2018-Feb-10 05:30N 51°09' E 003°47'0 0.0
2018-Feb-10 04:59N 51°09' E 003°47'0 0.0
2018-Feb-10 04:26N 51°09' E 003°47'0 0.0
2018-Feb-10 04:00N 51°09' E 003°47'0 0.0
2018-Feb-10 03:15N 51°09' E 003°47'0 0.0
2018-Feb-10 02:56N 51°09' E 003°47'0 0.0
2018-Feb-10 02:26N 51°09' E 003°47'0 0.0
2018-Feb-10 01:56N 51°09' E 003°47'0 0.0
2018-Feb-10 01:26N 51°09' E 003°47'0 0.0
2018-Feb-10 00:56N 51°09' E 003°47'0 0.0
2018-Feb-10 00:26N 51°09' E 003°47'0 0.0
2018-Feb-09 23:56N 51°09' E 003°47'0 0.0
2018-Feb-09 23:30N 51°09' E 003°47'0 0.0
2018-Feb-09 22:56N 51°09' E 003°47'0 0.0
2018-Feb-09 22:44N 51°09' E 003°47'3 0.2
2018-Feb-09 07:30N 51°12' E 003°48'3 5.2
2018-Feb-09 07:00N 51°15' E 003°49'6 3.0
2018-Feb-09 05:00N 51°21' E 003°49'8 8.4
2018-Feb-09 04:00N 51°26' E 003°39'21 8.3
2018-Feb-09 01:30N 51°24' E 003°06'1111.4
2018-Feb-09 00:30N 51°25' E 002°48'7 7.0
2018-Feb-08 23:30N 51°25' E 002°37'  

Dump ship's entire track history